Scott Bar, California
Current Conditions -  °F | °C
As of 10:53 PM on Thursday 18 Dec 2014 (Local Time) from KSIY Reporting Station
Overcast Overcast  
Wind Chill: 40°   Ceiling: 5500
Heat Index: 45°   Visibility: 10mi
Dew Point: 38°   Wind: 10mph
Humidity: 76%   Direction: 190°S
Pressure: 29.99"   Gusts: NA
Location:  41.74°N, 123°W
Report Text: KSIY 190653Z AUTO 19009KT 10SM FEW040 SCT049 OVC055 07/03 A2999 RMK AO2 RAE0554B18E38 SLP168 P0000 T00720033
Loading
Personal Weather Stations






























Interactive Weather Map New forecast layout! Learn more

10-Day Weather Forecast

Advertisements
Track Severe Weather on mobile